createdAt,value
2019-03-19T00:01:57.945Z,73.07
2019-03-19T00:04:27.001Z,73.59
2019-03-19T00:06:56.031Z,73.47
2019-03-19T00:09:25.177Z,73.51
2019-03-19T00:11:54.119Z,74.02
2019-03-19T00:14:23.499Z,74.07
2019-03-19T00:16:52.440Z,74.19
2019-03-19T00:19:22.519Z,74.17
2019-03-19T00:21:50.514Z,73.86
2019-03-19T00:24:19.522Z,73.66
2019-03-19T00:26:48.400Z,73.73
2019-03-19T00:29:17.552Z,73.64
2019-03-19T00:31:46.502Z,73.54
2019-03-19T00:34:15.600Z,72.30
2019-03-19T00:36:44.636Z,71.71
2019-03-19T00:39:13.597Z,72.83
2019-03-19T00:41:42.577Z,72.93
2019-03-19T00:44:12.406Z,73.19
2019-03-19T00:46:42.179Z,73.55
2019-03-19T00:49:11.129Z,73.09
2019-03-19T00:51:40.109Z,72.95
2019-03-19T00:54:09.170Z,73.15
2019-03-19T00:56:38.284Z,72.64
2019-03-19T00:59:07.359Z,72.49
2019-03-19T01:01:38.852Z,72.15
2019-03-19T01:04:06.522Z,73.03
2019-03-19T01:06:35.924Z,72.90
2019-03-19T01:09:06.224Z,73.23
2019-03-19T01:11:35.274Z,73.24
2019-03-19T01:14:04.312Z,73.71
2019-03-19T01:16:34.820Z,74.05
2019-03-19T01:19:03.831Z,74.79
2019-03-19T01:21:32.837Z,74.45
2019-03-19T01:24:01.962Z,74.24
2019-03-19T01:26:30.912Z,74.46
2019-03-19T01:28:59.870Z,74.63
2019-03-19T01:31:28.903Z,74.62
2019-03-19T01:33:57.935Z,74.80
2019-03-19T01:36:26.977Z,74.81
2019-03-19T01:38:56.038Z,74.42
2019-03-19T01:41:25.117Z,73.13
2019-03-19T01:43:54.088Z,74.62
2019-03-19T01:46:23.082Z,74.69
2019-03-19T01:48:54.969Z,74.91
2019-03-19T01:51:24.110Z,75.13
2019-03-19T01:53:53.145Z,74.57
2019-03-19T01:56:22.142Z,74.67
2019-03-19T01:58:51.172Z,75.41
2019-03-19T02:01:20.227Z,75.00
2019-03-19T02:03:49.696Z,74.83
2019-03-19T02:06:18.601Z,74.45
2019-03-19T02:08:47.640Z,74.64
2019-03-19T02:11:17.076Z,74.66
2019-03-19T02:13:46.052Z,74.20
2019-03-19T02:16:15.172Z,74.12
2019-03-19T02:18:44.220Z,74.65
2019-03-19T02:21:13.212Z,74.49
2019-03-19T02:23:42.296Z,73.13
2019-03-19T02:26:16.426Z,74.36
2019-03-19T02:28:40.321Z,73.82
2019-03-19T02:31:12.446Z,73.15
2019-03-19T02:33:41.409Z,73.57
2019-03-19T02:36:10.498Z,73.99
2019-03-19T02:38:40.853Z,74.19
2019-03-19T02:41:10.168Z,74.02
2019-03-19T02:43:40.887Z,74.30
2019-03-19T02:46:10.089Z,74.42
2019-03-19T02:48:39.576Z,74.29
2019-03-19T02:51:09.098Z,74.34
2019-03-19T02:53:38.157Z,74.65
2019-03-19T02:56:07.348Z,74.89
2019-03-19T02:58:37.252Z,74.90
2019-03-19T03:01:06.393Z,75.01
2019-03-19T03:03:35.799Z,74.26
2019-03-19T03:06:05.674Z,74.76
2019-03-19T03:08:36.035Z,74.99
2019-03-19T03:11:05.864Z,74.75
2019-03-19T03:13:34.973Z,74.85
2019-03-19T03:16:04.155Z,75.08
2019-03-19T03:18:33.948Z,75.21
2019-03-19T03:21:05.158Z,75.28
2019-03-19T03:23:38.487Z,74.78
2019-03-19T03:26:07.977Z,74.59
2019-03-19T03:28:51.921Z,75.09
2019-03-19T03:31:21.094Z,74.35
2019-03-19T03:33:50.219Z,75.34
2019-03-19T03:36:22.150Z,75.04
2019-03-19T03:38:52.001Z,75.39
2019-03-19T03:41:21.111Z,75.26
2019-03-19T03:43:50.205Z,74.93
2019-03-19T03:46:20.043Z,75.09
2019-03-19T03:48:49.741Z,74.86
2019-03-19T03:51:19.780Z,74.91
2019-03-19T03:53:48.833Z,75.09
2019-03-19T03:56:17.924Z,75.64
2019-03-19T03:59:00.066Z,75.32
2019-03-19T04:01:16.268Z,75.54
2019-03-19T04:03:45.437Z,75.34
2019-03-19T04:06:14.805Z,75.48
2019-03-19T04:08:43.819Z,75.70
2019-03-19T04:11:13.584Z,75.39
2019-03-19T04:13:42.719Z,75.13
2019-03-19T04:16:11.842Z,75.11
2019-03-19T04:18:40.960Z,75.23
2019-03-19T04:21:10.041Z,74.77
2019-03-19T04:23:39.325Z,75.00
2019-03-19T04:26:08.920Z,74.98
2019-03-19T04:28:38.079Z,74.88
2019-03-19T04:31:10.617Z,75.01
2019-03-19T04:33:39.720Z,74.81
2019-03-19T04:36:08.985Z,74.95
2019-03-19T04:38:40.051Z,74.60
2019-03-19T04:41:09.261Z,73.67
2019-03-19T04:43:38.528Z,74.58
2019-03-19T04:46:10.470Z,74.67
2019-03-19T04:48:39.587Z,75.49
2019-03-19T04:51:08.663Z,75.26
2019-03-19T04:53:41.653Z,75.24
2019-03-19T04:56:15.667Z,74.68
2019-03-19T04:58:46.951Z,74.65
2019-03-19T05:01:24.210Z,74.79
2019-03-19T05:04:05.214Z,74.97
2019-03-19T05:06:34.608Z,75.08
2019-03-19T05:09:09.122Z,74.78
2019-03-19T05:11:38.331Z,74.90
2019-03-19T05:14:08.361Z,75.44
2019-03-19T05:16:37.595Z,75.28
2019-03-19T05:19:06.894Z,75.27
2019-03-19T05:21:36.023Z,75.02
2019-03-19T05:24:05.084Z,74.83
2019-03-19T05:26:34.566Z,75.00
2019-03-19T05:29:05.683Z,75.29
2019-03-19T05:31:37.645Z,75.34
2019-03-19T05:34:06.959Z,75.18
2019-03-19T05:36:36.110Z,75.23
2019-03-19T05:39:09.082Z,75.22
2019-03-19T05:41:38.229Z,75.00
2019-03-19T05:44:09.271Z,76.06
2019-03-19T05:46:38.418Z,76.10
2019-03-19T05:49:07.680Z,75.91
2019-03-19T05:51:36.890Z,76.15
2019-03-19T05:54:06.265Z,75.43
2019-03-19T05:56:36.054Z,75.34
2019-03-19T05:59:05.268Z,75.56
2019-03-19T06:01:35.267Z,75.17
2019-03-19T06:04:05.474Z,73.90
2019-03-19T06:06:34.930Z,74.55
2019-03-19T06:09:24.545Z,74.79
2019-03-19T06:11:53.755Z,75.05
2019-03-19T06:14:23.387Z,74.80
2019-03-19T06:16:52.567Z,74.84
2019-03-19T06:19:22.001Z,73.70
2019-03-19T06:21:51.150Z,74.63
2019-03-19T06:24:20.265Z,73.03
2019-03-19T06:26:49.385Z,73.84
2019-03-19T06:29:18.462Z,73.99
2019-03-19T06:31:47.656Z,73.96
2019-03-19T06:34:17.711Z,73.86
2019-03-19T06:36:46.877Z,71.87
2019-03-19T06:39:16.702Z,71.65
2019-03-19T06:41:45.721Z,69.59
2019-03-19T06:44:14.864Z,70.67
2019-03-19T06:46:45.223Z,70.99
2019-03-19T06:49:14.379Z,70.67
2019-03-19T06:51:43.404Z,71.23
2019-03-19T06:54:13.333Z,71.57
2019-03-19T06:56:43.344Z,72.00
2019-03-19T06:59:12.577Z,72.40
2019-03-19T07:01:41.724Z,70.74
2019-03-19T07:04:11.028Z,71.49
2019-03-19T07:06:40.531Z,71.37
2019-03-19T07:09:10.251Z,71.03
2019-03-19T07:11:39.450Z,70.94
2019-03-19T07:14:10.498Z,70.86
2019-03-19T07:16:40.177Z,70.68
2019-03-19T07:19:10.667Z,69.15
2019-03-19T07:21:42.499Z,68.68
2019-03-19T07:24:15.512Z,68.94
2019-03-19T07:27:04.925Z,67.77
2019-03-19T07:29:49.688Z,65.81
2019-03-19T07:32:21.519Z,65.66
2019-03-19T07:34:50.752Z,66.16
2019-03-19T07:37:20.003Z,66.37
2019-03-19T07:39:49.186Z,65.99
2019-03-19T07:42:18.720Z,64.12
2019-03-19T07:44:50.214Z,59.87
2019-03-19T07:47:21.442Z,55.81
2019-03-19T07:49:53.516Z,56.66
2019-03-19T07:52:25.405Z,56.56
2019-03-19T07:54:57.919Z,57.26
2019-03-19T07:57:29.576Z,57.67
2019-03-19T07:59:58.248Z,57.22
2019-03-19T08:02:29.639Z,56.03
2019-03-19T08:04:59.339Z,55.10
2019-03-19T08:07:28.386Z,53.99
2019-03-19T08:09:57.511Z,52.23
2019-03-19T08:12:26.945Z,50.17
2019-03-19T08:14:55.979Z,50.67
2019-03-19T08:17:26.100Z,47.89
2019-03-19T08:19:57.319Z,44.65
2019-03-19T08:22:27.325Z,42.93
2019-03-19T08:24:58.565Z,41.35
2019-03-19T08:27:29.545Z,42.30
2019-03-19T08:29:58.728Z,40.66
2019-03-19T08:32:35.257Z,42.13
2019-03-19T08:35:04.798Z,39.57
2019-03-19T08:37:33.932Z,39.67
2019-03-19T08:40:03.206Z,40.53
2019-03-19T08:42:32.309Z,38.71
2019-03-19T08:45:01.500Z,39.28
2019-03-19T08:47:30.690Z,38.45
2019-03-19T08:49:59.898Z,37.31
2019-03-19T08:52:29.184Z,35.29
2019-03-19T08:55:01.023Z,36.72
2019-03-19T08:57:30.045Z,36.60
2019-03-19T08:59:59.176Z,40.46
2019-03-19T09:02:28.316Z,40.86
2019-03-19T09:04:57.410Z,42.33
2019-03-19T09:07:26.544Z,43.21
2019-03-19T09:09:55.715Z,43.15
2019-03-19T09:12:27.478Z,41.47
2019-03-19T09:14:56.572Z,39.20
2019-03-19T09:17:25.686Z,38.99
2019-03-19T09:19:54.646Z,39.53
2019-03-19T09:22:29.635Z,38.30
2019-03-19T09:24:53.701Z,37.97
2019-03-19T09:27:23.372Z,37.97
2019-03-19T09:29:53.922Z,37.24
2019-03-19T09:32:25.792Z,36.93
2019-03-19T09:34:54.791Z,36.05
2019-03-19T09:37:44.601Z,34.11
2019-03-19T09:40:09.642Z,32.09
2019-03-19T09:42:38.868Z,31.31
2019-03-19T09:45:08.493Z,30.74
2019-03-19T09:47:38.578Z,30.72
2019-03-19T09:50:07.511Z,28.13
2019-03-19T09:52:36.602Z,29.35
2019-03-19T09:55:06.609Z,28.76
2019-03-19T09:57:35.796Z,28.95
2019-03-19T10:00:06.411Z,27.95
2019-03-19T10:02:35.693Z,27.71
2019-03-19T10:05:05.119Z,26.55
2019-03-19T10:07:34.262Z,22.43
2019-03-19T10:10:03.546Z,25.22
2019-03-19T10:12:32.742Z,25.14
2019-03-19T10:15:02.754Z,25.04
2019-03-19T10:17:31.975Z,25.45
2019-03-19T10:20:01.035Z,22.90
2019-03-19T10:22:30.269Z,25.88
2019-03-19T10:24:59.478Z,25.95
2019-03-19T10:27:28.777Z,27.07
2019-03-19T10:29:58.285Z,22.59
2019-03-19T10:32:27.537Z,24.22
2019-03-19T10:34:56.910Z,26.00
2019-03-19T10:37:26.138Z,27.39
2019-03-19T10:39:55.166Z,27.49
2019-03-19T10:42:24.524Z,24.93
2019-03-19T10:44:53.587Z,26.74
2019-03-19T10:47:22.801Z,28.60
2019-03-19T10:49:51.974Z,27.20
2019-03-19T10:52:21.022Z,27.61
2019-03-19T10:54:50.092Z,25.95
2019-03-19T10:57:19.214Z,28.21
2019-03-19T10:59:49.995Z,27.55
2019-03-19T11:02:19.016Z,26.87
2019-03-19T11:04:48.136Z,27.36
2019-03-19T11:07:17.153Z,26.75
2019-03-19T11:09:46.338Z,26.09
2019-03-19T11:12:15.386Z,23.08
2019-03-19T11:14:44.397Z,25.54
2019-03-19T11:17:13.505Z,25.79
2019-03-19T11:19:42.600Z,26.36
2019-03-19T11:22:11.529Z,27.18
2019-03-19T11:24:40.571Z,27.59
2019-03-19T11:27:09.770Z,28.92
2019-03-19T11:29:38.906Z,27.51
2019-03-19T11:32:08.173Z,26.74
2019-03-19T11:34:37.249Z,27.63
2019-03-19T11:37:06.508Z,27.35
2019-03-19T11:39:35.551Z,27.23
2019-03-19T11:42:04.799Z,26.41
2019-03-19T11:44:33.869Z,28.50
2019-03-19T11:47:03.133Z,29.14
2019-03-19T11:49:32.334Z,30.74
2019-03-19T11:52:01.751Z,30.28
2019-03-19T11:54:30.864Z,31.48
2019-03-19T11:57:00.101Z,33.20
2019-03-19T11:59:29.164Z,35.26
2019-03-19T12:01:58.385Z,36.56
2019-03-19T12:04:27.468Z,37.04
2019-03-19T12:06:56.726Z,37.08
2019-03-19T12:09:25.965Z,36.68
2019-03-19T12:11:55.266Z,36.28
2019-03-19T12:14:24.523Z,36.59
2019-03-19T12:16:53.663Z,37.64
2019-03-19T12:19:22.856Z,37.88
2019-03-19T12:21:52.117Z,38.65
2019-03-19T12:24:21.363Z,38.40
2019-03-19T12:26:50.558Z,39.01
2019-03-19T12:29:19.851Z,38.47
2019-03-19T12:31:48.945Z,40.03
2019-03-19T12:34:18.226Z,40.66
2019-03-19T12:36:47.445Z,40.64
2019-03-19T12:39:16.585Z,40.75
2019-03-19T12:41:45.772Z,39.47
2019-03-19T12:44:15.022Z,40.72
2019-03-19T12:46:44.305Z,39.87
2019-03-19T12:49:13.436Z,40.16
2019-03-19T12:51:42.719Z,40.94
2019-03-19T12:54:11.875Z,39.76
2019-03-19T12:56:41.028Z,41.22
2019-03-19T12:59:19.719Z,40.97
2019-03-19T13:01:39.277Z,41.70
2019-03-19T13:04:08.699Z,41.89
2019-03-19T13:06:37.840Z,41.86
2019-03-19T13:09:08.049Z,42.31
2019-03-19T13:11:37.428Z,42.66
2019-03-19T13:14:06.543Z,44.21
2019-03-19T13:16:45.104Z,45.45
2019-03-19T13:19:14.259Z,44.73
2019-03-19T13:21:43.473Z,45.10
2019-03-19T13:24:12.582Z,45.54
2019-03-19T13:26:41.873Z,45.53
2019-03-19T13:29:14.112Z,45.53
2019-03-19T13:31:43.391Z,46.51
2019-03-19T13:34:12.526Z,45.69
2019-03-19T13:36:41.687Z,43.81
2019-03-19T13:39:10.903Z,45.63
2019-03-19T13:41:40.813Z,46.20
2019-03-19T13:44:11.323Z,45.78
2019-03-19T13:46:39.195Z,46.23
2019-03-19T13:49:08.455Z,45.26
2019-03-19T13:51:37.436Z,42.63
2019-03-19T13:54:06.513Z,44.12
2019-03-19T13:56:35.512Z,44.71
2019-03-19T13:59:06.725Z,43.48
2019-03-19T14:01:36.039Z,43.14
2019-03-19T14:04:05.384Z,43.12
2019-03-19T14:06:34.578Z,43.55
2019-03-19T14:09:04.396Z,44.67
2019-03-19T14:11:33.579Z,44.61
2019-03-19T14:14:02.749Z,45.38
2019-03-19T14:16:32.044Z,45.86
2019-03-19T14:19:01.198Z,45.63
2019-03-19T14:21:30.432Z,46.11
2019-03-19T14:23:59.626Z,45.35
2019-03-19T14:26:28.840Z,45.86
2019-03-19T14:28:58.008Z,46.31
2019-03-19T14:31:27.224Z,45.85
2019-03-19T14:33:56.404Z,45.77
2019-03-19T14:36:25.545Z,45.05
2019-03-19T14:38:54.913Z,45.81
2019-03-19T14:41:24.118Z,43.73
2019-03-19T14:43:53.350Z,42.99
2019-03-19T14:46:22.443Z,42.06
2019-03-19T14:48:51.699Z,42.47
2019-03-19T14:51:20.812Z,42.44
2019-03-19T14:53:50.004Z,42.19
2019-03-19T14:56:19.232Z,41.63
2019-03-19T14:58:48.486Z,40.96
2019-03-19T15:01:19.701Z,42.09
2019-03-19T15:03:46.929Z,41.74
2019-03-19T15:06:16.018Z,42.50
2019-03-19T15:08:45.365Z,43.30
2019-03-19T15:11:14.409Z,42.88
2019-03-19T15:13:43.618Z,43.30
2019-03-19T15:16:12.788Z,42.45
2019-03-19T15:18:42.056Z,42.45
2019-03-19T15:21:11.317Z,42.21
2019-03-19T15:23:43.227Z,42.31
2019-03-19T15:26:12.400Z,43.02
2019-03-19T15:28:41.600Z,43.95
2019-03-19T15:31:10.890Z,43.88
2019-03-19T15:33:39.972Z,43.34
2019-03-19T15:36:09.209Z,44.01
2019-03-19T15:38:38.312Z,45.52
2019-03-19T15:41:07.957Z,45.12
2019-03-19T15:43:37.202Z,45.05
2019-03-19T15:46:06.461Z,44.81
2019-03-19T15:48:35.698Z,45.28
2019-03-19T15:51:04.894Z,45.63
2019-03-19T15:53:34.092Z,45.28
2019-03-19T15:56:03.392Z,45.22
2019-03-19T15:58:32.704Z,46.34
2019-03-19T16:01:01.899Z,46.37
2019-03-19T16:03:31.129Z,47.36
2019-03-19T16:06:00.252Z,48.33
2019-03-19T16:08:29.336Z,48.13
2019-03-19T16:10:58.342Z,49.43
2019-03-19T16:13:27.337Z,49.25
2019-03-19T16:15:56.417Z,50.13
2019-03-19T16:18:25.465Z,50.41
2019-03-19T16:20:54.419Z,50.26
2019-03-19T16:23:23.428Z,50.53
2019-03-19T16:25:52.392Z,50.76
2019-03-19T16:28:21.432Z,51.34
2019-03-19T16:30:50.350Z,51.30
2019-03-19T16:33:19.373Z,51.93
2019-03-19T16:35:49.624Z,50.78
2019-03-19T16:38:19.541Z,52.11
2019-03-19T16:40:48.610Z,52.50
2019-03-19T16:43:17.673Z,50.52
2019-03-19T16:45:48.376Z,51.73
2019-03-19T16:48:17.315Z,53.19
2019-03-19T16:50:46.421Z,53.76
2019-03-19T16:53:16.736Z,53.64
2019-03-19T16:55:45.737Z,53.02
2019-03-19T16:58:17.107Z,53.12
2019-03-19T17:00:47.867Z,52.62
2019-03-19T17:03:16.832Z,53.17
2019-03-19T17:05:45.942Z,53.43
2019-03-19T17:08:14.859Z,53.78
2019-03-19T17:10:43.825Z,54.10
2019-03-19T17:13:12.833Z,53.28
2019-03-19T17:15:42.701Z,54.27
2019-03-19T17:18:11.728Z,54.47
2019-03-19T17:20:40.721Z,54.43
2019-03-19T17:23:10.020Z,54.45
2019-03-19T17:25:38.911Z,54.49
2019-03-19T17:28:08.225Z,54.24
2019-03-19T17:30:37.384Z,54.30
2019-03-19T17:33:06.400Z,54.53
2019-03-19T17:35:35.371Z,55.06
2019-03-19T17:38:04.443Z,54.67
2019-03-19T17:40:41.350Z,55.34
2019-03-19T17:43:02.533Z,54.22
2019-03-19T17:45:33.074Z,54.13
2019-03-19T17:48:02.014Z,56.66
2019-03-19T17:50:31.070Z,57.00
2019-03-19T17:53:00.029Z,57.58
2019-03-19T17:55:29.019Z,58.20
2019-03-19T17:57:57.946Z,58.27
2019-03-19T18:00:30.548Z,59.21
2019-03-19T18:02:57.035Z,58.24
2019-03-19T18:05:25.968Z,59.57
2019-03-19T18:07:54.917Z,59.84
2019-03-19T18:10:23.900Z,60.10
2019-03-19T18:12:52.827Z,60.52
2019-03-19T18:15:21.767Z,60.86
2019-03-19T18:17:50.703Z,60.67
2019-03-19T18:20:20.046Z,61.38
2019-03-19T18:22:49.148Z,61.92
2019-03-19T18:25:19.051Z,61.58
2019-03-19T18:27:48.083Z,61.53
2019-03-19T18:30:17.053Z,61.95
2019-03-19T18:32:47.135Z,62.11
2019-03-19T18:35:15.895Z,62.39
2019-03-19T18:37:44.959Z,62.69
2019-03-19T18:40:14.031Z,62.03
2019-03-19T18:42:42.951Z,62.82
2019-03-19T18:45:11.904Z,63.54
2019-03-19T18:47:40.848Z,63.69
2019-03-19T18:50:11.440Z,63.06
2019-03-19T18:52:40.446Z,62.89
2019-03-19T18:55:09.480Z,63.33
2019-03-19T18:57:38.431Z,63.07
2019-03-19T19:00:09.256Z,63.47
2019-03-19T19:02:49.073Z,64.21
2019-03-19T19:05:08.204Z,64.35
2019-03-19T19:07:37.361Z,64.71
2019-03-19T19:10:06.575Z,64.29
2019-03-19T19:12:35.550Z,63.64
2019-03-19T19:15:05.700Z,64.00
2019-03-19T19:17:34.717Z,63.71
2019-03-19T19:20:03.749Z,63.71
2019-03-19T19:22:32.613Z,64.45
2019-03-19T19:25:01.528Z,63.94
2019-03-19T19:27:33.467Z,64.59
2019-03-19T19:29:59.454Z,64.50
2019-03-19T19:32:28.410Z,65.77
2019-03-19T19:34:57.737Z,64.73
2019-03-19T19:37:26.701Z,64.72
2019-03-19T19:39:55.584Z,64.99
2019-03-19T19:42:24.727Z,65.67
2019-03-19T19:44:53.656Z,66.33
2019-03-19T19:47:22.959Z,66.92
2019-03-19T19:49:51.957Z,67.04
2019-03-19T19:52:20.955Z,66.34
2019-03-19T19:54:51.180Z,66.21
2019-03-19T19:57:20.125Z,66.51
2019-03-19T19:59:49.179Z,66.36
2019-03-19T20:02:21.239Z,66.88
2019-03-19T20:04:50.189Z,66.67
2019-03-19T20:07:19.183Z,67.66
2019-03-19T20:09:50.484Z,68.09
2019-03-19T20:12:19.365Z,68.27
2019-03-19T20:14:48.390Z,68.42
2019-03-19T20:17:17.444Z,68.92
2019-03-19T20:19:46.384Z,68.88
2019-03-19T20:22:15.416Z,68.89
2019-03-19T20:24:47.276Z,68.83
2019-03-19T20:27:16.375Z,68.86
2019-03-19T20:29:45.293Z,68.74
2019-03-19T20:32:14.333Z,68.48
2019-03-19T20:34:43.392Z,68.47
2019-03-19T20:37:12.335Z,67.58
2019-03-19T20:39:43.128Z,68.62
2019-03-19T20:42:18.732Z,68.55
2019-03-19T20:44:51.010Z,69.13
2019-03-19T20:47:33.416Z,69.04
2019-03-19T20:50:02.510Z,68.61
2019-03-19T20:52:37.832Z,68.72
2019-03-19T20:55:07.277Z,69.28
2019-03-19T20:57:36.447Z,69.25
2019-03-19T21:00:06.555Z,69.57
2019-03-19T21:02:38.144Z,69.75
2019-03-19T21:05:07.088Z,69.63
2019-03-19T21:07:36.043Z,69.55
2019-03-19T21:10:06.217Z,69.81
2019-03-19T21:12:35.203Z,68.78
2019-03-19T21:15:25.610Z,69.64
2019-03-19T21:18:02.550Z,69.58
2019-03-19T21:20:31.899Z,69.64
2019-03-19T21:23:03.562Z,68.75
2019-03-19T21:25:45.092Z,69.49
2019-03-19T21:28:33.809Z,69.40
2019-03-19T21:31:03.810Z,69.22
2019-03-19T21:33:32.821Z,69.18
2019-03-19T21:36:01.763Z,68.87
2019-03-19T21:38:58.158Z,69.11
2019-03-19T21:41:44.110Z,69.21
2019-03-19T21:46:23.347Z,68.09
2019-03-19T21:48:04.688Z,69.52
2019-03-19T21:50:33.719Z,69.71
2019-03-19T21:53:05.278Z,69.83
2019-03-19T21:55:36.209Z,69.65
2019-03-19T21:58:07.811Z,69.92
2019-03-19T22:00:39.075Z,69.74
2019-03-19T22:03:08.626Z,69.85
2019-03-19T22:05:43.601Z,69.62
2019-03-19T22:08:12.543Z,69.76
2019-03-19T22:10:41.650Z,69.98
2019-03-19T22:13:10.784Z,69.84
2019-03-19T22:15:39.840Z,69.98
2019-03-19T22:18:08.862Z,70.17
2019-03-19T22:20:37.984Z,70.62
2019-03-19T22:23:06.965Z,69.67
2019-03-19T22:25:35.790Z,71.19
2019-03-19T22:28:04.878Z,71.34
2019-03-19T22:30:33.823Z,71.41
2019-03-19T22:33:05.201Z,71.40
2019-03-19T22:35:32.299Z,71.38
2019-03-19T22:38:01.673Z,71.73
2019-03-19T22:40:31.299Z,71.80
2019-03-19T22:43:00.466Z,71.22
2019-03-19T22:45:29.714Z,71.70
2019-03-19T22:47:58.909Z,71.79
2019-03-19T22:50:28.066Z,72.10
2019-03-19T22:52:57.088Z,72.16
2019-03-19T22:55:29.315Z,71.60
2019-03-19T22:57:55.011Z,70.97
2019-03-19T23:00:34.499Z,70.96
2019-03-19T23:03:03.609Z,70.40
2019-03-19T23:05:32.631Z,71.11
2019-03-19T23:08:01.705Z,71.16
2019-03-19T23:10:30.650Z,71.00
2019-03-19T23:12:59.622Z,70.11
2019-03-19T23:15:28.600Z,71.17
2019-03-19T23:17:57.567Z,71.18
2019-03-19T23:20:26.483Z,71.57
2019-03-19T23:22:55.440Z,71.43
2019-03-19T23:25:24.383Z,71.44
2019-03-19T23:27:53.434Z,71.34
2019-03-19T23:30:22.420Z,71.71
2019-03-19T23:32:51.387Z,71.99
2019-03-19T23:35:20.308Z,71.75
2019-03-19T23:37:49.315Z,72.17
2019-03-19T23:40:18.312Z,71.80
2019-03-19T23:42:47.272Z,74.04
2019-03-19T23:45:16.321Z,73.96
2019-03-19T23:47:45.188Z,73.44
2019-03-19T23:50:14.208Z,72.31
2019-03-19T23:52:43.186Z,71.47
2019-03-19T23:55:12.228Z,72.04
2019-03-19T23:57:41.195Z,72.67
